sensor_id;sensor_type;location;lat;lon;timestamp;P1;durP1;ratioP1;P2;durP2;ratioP2
36725;SDS011;44936;52.086;5.150;2023-01-10T00:01:57;3.42;;;0.88;;
36725;SDS011;44936;52.086;5.150;2023-01-10T00:04:25;6.85;;;0.63;;
36725;SDS011;44936;52.086;5.150;2023-01-10T00:06:50;3.50;;;0.50;;
36725;SDS011;44936;52.086;5.150;2023-01-10T00:12:09;6.80;;;0.60;;
36725;SDS011;44936;52.086;5.150;2023-01-10T00:15:04;8.35;;;0.55;;
36725;SDS011;44936;52.086;5.150;2023-01-10T00:17:30;5.28;;;0.52;;
36725;SDS011;44936;52.086;5.150;2023-01-10T00:19:56;6.85;;;0.50;;
36725;SDS011;44936;52.086;5.150;2023-01-10T00:22:21;8.25;;;0.75;;
36725;SDS011;44936;52.086;5.150;2023-01-10T00:24:49;9.95;;;0.90;;
36725;SDS011;44936;52.086;5.150;2023-01-10T00:27:14;6.10;;;0.75;;
36725;SDS011;44936;52.086;5.150;2023-01-10T00:29:46;3.95;;;0.73;;
36725;SDS011;44936;52.086;5.150;2023-01-10T00:32:12;3.33;;;0.60;;
36725;SDS011;44936;52.086;5.150;2023-01-10T00:34:37;3.42;;;0.40;;
36725;SDS011;44936;52.086;5.150;2023-01-10T00:37:06;4.22;;;0.80;;
36725;SDS011;44936;52.086;5.150;2023-01-10T00:39:31;3.05;;;0.50;;
36725;SDS011;44936;52.086;5.150;2023-01-10T00:41:57;3.55;;;0.50;;
36725;SDS011;44936;52.086;5.150;2023-01-10T00:44:40;6.60;;;0.60;;
36725;SDS011;44936;52.086;5.150;2023-01-10T00:47:06;7.13;;;0.70;;
36725;SDS011;44936;52.086;5.150;2023-01-10T00:49:32;6.32;;;0.60;;
36725;SDS011;44936;52.086;5.150;2023-01-10T00:51:57;7.43;;;0.63;;
36725;SDS011;44936;52.086;5.150;2023-01-10T00:54:24;1.52;;;0.28;;
36725;SDS011;44936;52.086;5.150;2023-01-10T00:56:52;7.88;;;0.75;;
36725;SDS011;44936;52.086;5.150;2023-01-10T00:59:21;2.63;;;1.55;;
36725;SDS011;44936;52.086;5.150;2023-01-10T01:01:47;9.00;;;0.75;;
36725;SDS011;44936;52.086;5.150;2023-01-10T01:04:13;4.15;;;0.70;;
36725;SDS011;44936;52.086;5.150;2023-01-10T01:06:39;3.83;;;0.47;;
36725;SDS011;44936;52.086;5.150;2023-01-10T01:09:04;4.30;;;0.50;;
36725;SDS011;44936;52.086;5.150;2023-01-10T01:11:30;3.78;;;0.50;;
36725;SDS011;44936;52.086;5.150;2023-01-10T01:13:55;2.92;;;0.43;;
36725;SDS011;44936;52.086;5.150;2023-01-10T01:16:26;3.85;;;0.50;;
36725;SDS011;44936;52.086;5.150;2023-01-10T01:18:51;10.27;;;0.80;;
36725;SDS011;44936;52.086;5.150;2023-01-10T01:21:17;4.57;;;0.80;;
36725;SDS011;44936;52.086;5.150;2023-01-10T01:23:42;0.95;;;0.30;;
36725;SDS011;44936;52.086;5.150;2023-01-10T01:26:11;9.40;;;0.60;;
36725;SDS011;44936;52.086;5.150;2023-01-10T01:28:58;7.25;;;0.55;;
36725;SDS011;44936;52.086;5.150;2023-01-10T01:31:23;8.35;;;0.65;;
36725;SDS011;44936;52.086;5.150;2023-01-10T01:33:51;2.75;;;0.65;;
36725;SDS011;44936;52.086;5.150;2023-01-10T01:36:19;7.60;;;1.25;;
36725;SDS011;44936;52.086;5.150;2023-01-10T01:38:57;1.38;;;0.50;;
36725;SDS011;44936;52.086;5.150;2023-01-10T01:44:29;5.93;;;0.60;;
36725;SDS011;44936;52.086;5.150;2023-01-10T02:13:37;5.35;;;0.35;;
36725;SDS011;44936;52.086;5.150;2023-01-10T03:01:54;1.92;;;0.20;;
36725;SDS011;44936;52.086;5.150;2023-01-10T03:08:00;6.82;;;0.50;;
36725;SDS011;44936;52.086;5.150;2023-01-10T03:10:50;4.32;;;0.50;;
36725;SDS011;44936;52.086;5.150;2023-01-10T03:13:33;8.88;;;0.95;;
36725;SDS011;44936;52.086;5.150;2023-01-10T03:16:28;8.75;;;1.10;;
36725;SDS011;44936;52.086;5.150;2023-01-10T03:19:02;4.05;;;0.57;;
36725;SDS011;44936;52.086;5.150;2023-01-10T03:21:33;4.43;;;0.52;;
36725;SDS011;44936;52.086;5.150;2023-01-10T03:24:23;7.15;;;0.80;;
36725;SDS011;44936;52.086;5.150;2023-01-10T03:27:05;9.63;;;0.88;;
36725;SDS011;44936;52.086;5.150;2023-01-10T03:32:14;5.95;;;0.40;;
36725;SDS011;44936;52.086;5.150;2023-01-10T03:34:43;6.90;;;0.60;;
36725;SDS011;44936;52.086;5.150;2023-01-10T03:37:13;2.03;;;0.77;;
36725;SDS011;44936;52.086;5.150;2023-01-10T03:46:26;5.88;;;1.70;;
36725;SDS011;44936;52.086;5.150;2023-01-10T03:49:03;3.20;;;0.80;;
36725;SDS011;44936;52.086;5.150;2023-01-10T03:51:33;3.78;;;0.60;;
36725;SDS011;44936;52.086;5.150;2023-01-10T03:56:43;7.60;;;0.77;;
36725;SDS011;44936;52.086;5.150;2023-01-10T03:59:12;2.55;;;0.60;;
36725;SDS011;44936;52.086;5.150;2023-01-10T04:01:38;8.57;;;0.82;;
36725;SDS011;44936;52.086;5.150;2023-01-10T04:04:04;6.10;;;0.60;;
36725;SDS011;44936;52.086;5.150;2023-01-10T04:06:34;6.32;;;0.73;;
36725;SDS011;44936;52.086;5.150;2023-01-10T04:09:00;7.10;;;0.63;;
36725;SDS011;44936;52.086;5.150;2023-01-10T04:11:26;4.60;;;0.88;;
36725;SDS011;44936;52.086;5.150;2023-01-10T04:13:51;6.53;;;0.55;;
36725;SDS011;44936;52.086;5.150;2023-01-10T04:16:22;5.28;;;0.68;;
36725;SDS011;44936;52.086;5.150;2023-01-10T04:18:56;6.70;;;0.68;;
36725;SDS011;44936;52.086;5.150;2023-01-10T04:21:32;3.85;;;0.70;;
36725;SDS011;44936;52.086;5.150;2023-01-10T04:23:57;10.73;;;0.75;;
36725;SDS011;44936;52.086;5.150;2023-01-10T04:26:23;8.43;;;0.93;;
36725;SDS011;44936;52.086;5.150;2023-01-10T04:28:48;7.70;;;0.80;;
36725;SDS011;44936;52.086;5.150;2023-01-10T04:31:14;10.18;;;0.68;;
36725;SDS011;44936;52.086;5.150;2023-01-10T04:33:39;8.73;;;1.42;;
36725;SDS011;44936;52.086;5.150;2023-01-10T04:36:05;7.95;;;0.80;;
36725;SDS011;44936;52.086;5.150;2023-01-10T04:38:31;3.50;;;0.90;;
36725;SDS011;44936;52.086;5.150;2023-01-10T04:40:57;6.22;;;0.55;;
36725;SDS011;44936;52.086;5.150;2023-01-10T04:43:23;7.63;;;0.60;;
36725;SDS011;44936;52.086;5.150;2023-01-10T04:45:49;4.97;;;0.60;;
36725;SDS011;44936;52.086;5.150;2023-01-10T04:48:18;7.07;;;1.17;;
36725;SDS011;44936;52.086;5.150;2023-01-10T04:50:50;11.52;;;1.35;;
36725;SDS011;44936;52.086;5.150;2023-01-10T04:53:20;2.80;;;1.33;;
36725;SDS011;44936;52.086;5.150;2023-01-10T04:55:48;5.07;;;0.70;;
36725;SDS011;44936;52.086;5.150;2023-01-10T04:58:14;4.43;;;0.80;;
36725;SDS011;44936;52.086;5.150;2023-01-10T05:00:42;4.35;;;0.50;;
36725;SDS011;44936;52.086;5.150;2023-01-10T05:03:07;6.15;;;0.82;;
36725;SDS011;44936;52.086;5.150;2023-01-10T05:05:33;5.72;;;0.98;;
36725;SDS011;44936;52.086;5.150;2023-01-10T05:07:58;10.35;;;0.82;;
36725;SDS011;44936;52.086;5.150;2023-01-10T05:10:24;7.20;;;0.95;;
36725;SDS011;44936;52.086;5.150;2023-01-10T05:12:49;3.70;;;0.60;;
36725;SDS011;44936;52.086;5.150;2023-01-10T05:15:15;6.18;;;0.85;;
36725;SDS011;44936;52.086;5.150;2023-01-10T05:17:40;3.80;;;0.50;;
36725;SDS011;44936;52.086;5.150;2023-01-10T05:20:06;1.67;;;0.77;;
36725;SDS011;44936;52.086;5.150;2023-01-10T05:22:32;7.30;;;0.70;;
36725;SDS011;44936;52.086;5.150;2023-01-10T05:25:01;5.32;;;0.90;;
36725;SDS011;44936;52.086;5.150;2023-01-10T05:27:26;5.43;;;0.52;;
36725;SDS011;44936;52.086;5.150;2023-01-10T05:29:52;2.08;;;0.70;;
36725;SDS011;44936;52.086;5.150;2023-01-10T05:32:17;4.68;;;0.85;;
36725;SDS011;44936;52.086;5.150;2023-01-10T05:34:43;5.70;;;0.63;;
36725;SDS011;44936;52.086;5.150;2023-01-10T05:37:08;7.57;;;0.90;;
36725;SDS011;44936;52.086;5.150;2023-01-10T05:39:34;9.25;;;0.93;;
36725;SDS011;44936;52.086;5.150;2023-01-10T05:41:59;6.10;;;0.70;;
36725;SDS011;44936;52.086;5.150;2023-01-10T05:44:32;10.52;;;0.63;;
36725;SDS011;44936;52.086;5.150;2023-01-10T05:46:57;4.47;;;0.55;;
36725;SDS011;44936;52.086;5.150;2023-01-10T05:49:23;5.15;;;1.00;;
36725;SDS011;44936;52.086;5.150;2023-01-10T05:51:48;4.07;;;0.80;;
36725;SDS011;44936;52.086;5.150;2023-01-10T05:54:14;5.47;;;0.82;;
36725;SDS011;44936;52.086;5.150;2023-01-10T05:56:39;4.38;;;0.52;;
36725;SDS011;44936;52.086;5.150;2023-01-10T05:59:04;3.20;;;0.40;;
36725;SDS011;44936;52.086;5.150;2023-01-10T06:01:30;4.03;;;1.30;;
36725;SDS011;44936;52.086;5.150;2023-01-10T06:03:55;8.13;;;1.15;;
36725;SDS011;44936;52.086;5.150;2023-01-10T06:06:21;7.63;;;1.10;;
36725;SDS011;44936;52.086;5.150;2023-01-10T06:08:46;6.63;;;1.52;;
36725;SDS011;44936;52.086;5.150;2023-01-10T06:11:11;1.75;;;0.35;;
36725;SDS011;44936;52.086;5.150;2023-01-10T06:13:37;5.00;;;0.70;;
36725;SDS011;44936;52.086;5.150;2023-01-10T06:16:02;3.55;;;0.80;;
36725;SDS011;44936;52.086;5.150;2023-01-10T06:18:28;6.38;;;0.90;;
36725;SDS011;44936;52.086;5.150;2023-01-10T06:20:54;8.00;;;1.25;;
36725;SDS011;44936;52.086;5.150;2023-01-10T06:23:19;4.13;;;0.50;;
36725;SDS011;44936;52.086;5.150;2023-01-10T06:25:45;9.73;;;0.60;;
36725;SDS011;44936;52.086;5.150;2023-01-10T06:28:11;3.15;;;0.65;;
36725;SDS011;44936;52.086;5.150;2023-01-10T06:30:38;4.72;;;0.57;;
36725;SDS011;44936;52.086;5.150;2023-01-10T06:33:06;10.90;;;0.98;;
36725;SDS011;44936;52.086;5.150;2023-01-10T06:35:35;7.95;;;0.80;;
36725;SDS011;44936;52.086;5.150;2023-01-10T06:38:01;7.47;;;0.55;;
36725;SDS011;44936;52.086;5.150;2023-01-10T06:40:30;4.70;;;0.45;;
36725;SDS011;44936;52.086;5.150;2023-01-10T06:42:55;12.07;;;1.77;;
36725;SDS011;44936;52.086;5.150;2023-01-10T06:45:21;6.28;;;0.82;;
36725;SDS011;44936;52.086;5.150;2023-01-10T06:47:50;9.77;;;0.98;;
36725;SDS011;44936;52.086;5.150;2023-01-10T06:50:15;7.85;;;1.23;;
36725;SDS011;44936;52.086;5.150;2023-01-10T06:52:43;12.48;;;1.08;;
36725;SDS011;44936;52.086;5.150;2023-01-10T06:55:09;8.98;;;0.68;;
36725;SDS011;44936;52.086;5.150;2023-01-10T06:57:37;6.25;;;0.82;;
36725;SDS011;44936;52.086;5.150;2023-01-10T07:00:06;10.27;;;0.88;;
36725;SDS011;44936;52.086;5.150;2023-01-10T07:02:32;4.30;;;1.10;;
36725;SDS011;44936;52.086;5.150;2023-01-10T07:04:58;6.38;;;0.75;;
36725;SDS011;44936;52.086;5.150;2023-01-10T07:07:23;5.65;;;0.90;;
36725;SDS011;44936;52.086;5.150;2023-01-10T07:09:49;11.57;;;1.10;;
36725;SDS011;44936;52.086;5.150;2023-01-10T07:12:14;3.40;;;0.65;;
36725;SDS011;44936;52.086;5.150;2023-01-10T07:14:40;11.15;;;0.88;;
36725;SDS011;44936;52.086;5.150;2023-01-10T07:17:05;6.85;;;0.60;;
36725;SDS011;44936;52.086;5.150;2023-01-10T07:19:32;9.73;;;0.93;;
36725;SDS011;44936;52.086;5.150;2023-01-10T07:21:57;8.10;;;0.98;;
36725;SDS011;44936;52.086;5.150;2023-01-10T07:24:23;8.57;;;0.95;;
36725;SDS011;44936;52.086;5.150;2023-01-10T07:26:49;14.88;;;1.70;;
36725;SDS011;44936;52.086;5.150;2023-01-10T07:29:15;7.53;;;2.08;;
36725;SDS011;44936;52.086;5.150;2023-01-10T07:31:40;6.47;;;1.20;;
36725;SDS011;44936;52.086;5.150;2023-01-10T07:34:06;5.45;;;0.85;;
36725;SDS011;44936;52.086;5.150;2023-01-10T07:36:34;7.00;;;0.85;;
36725;SDS011;44936;52.086;5.150;2023-01-10T07:39:01;10.40;;;1.42;;
36725;SDS011;44936;52.086;5.150;2023-01-10T07:41:26;8.40;;;1.35;;
36725;SDS011;44936;52.086;5.150;2023-01-10T07:43:52;6.47;;;0.90;;
36725;SDS011;44936;52.086;5.150;2023-01-10T07:46:17;7.93;;;1.35;;
36725;SDS011;44936;52.086;5.150;2023-01-10T07:48:43;6.95;;;1.05;;
36725;SDS011;44936;52.086;5.150;2023-01-10T07:51:10;6.28;;;1.60;;
36725;SDS011;44936;52.086;5.150;2023-01-10T07:53:36;7.22;;;0.90;;
36725;SDS011;44936;52.086;5.150;2023-01-10T07:56:02;7.93;;;1.48;;
36725;SDS011;44936;52.086;5.150;2023-01-10T07:58:28;9.50;;;1.42;;
36725;SDS011;44936;52.086;5.150;2023-01-10T08:00:57;11.43;;;1.30;;
36725;SDS011;44936;52.086;5.150;2023-01-10T08:03:24;5.65;;;0.82;;
36725;SDS011;44936;52.086;5.150;2023-01-10T08:05:55;9.05;;;1.30;;
36725;SDS011;44936;52.086;5.150;2023-01-10T08:10:57;6.10;;;1.33;;
36725;SDS011;44936;52.086;5.150;2023-01-10T08:13:27;6.03;;;2.25;;
36725;SDS011;44936;52.086;5.150;2023-01-10T08:15:52;9.98;;;1.38;;
36725;SDS011;44936;52.086;5.150;2023-01-10T08:18:19;11.60;;;1.33;;
36725;SDS011;44936;52.086;5.150;2023-01-10T08:20:47;4.53;;;1.63;;
36725;SDS011;44936;52.086;5.150;2023-01-10T08:23:31;13.68;;;2.08;;
36725;SDS011;44936;52.086;5.150;2023-01-10T08:25:57;9.50;;;1.50;;
36725;SDS011;44936;52.086;5.150;2023-01-10T08:28:23;8.98;;;1.58;;
36725;SDS011;44936;52.086;5.150;2023-01-10T08:30:49;9.25;;;1.42;;
36725;SDS011;44936;52.086;5.150;2023-01-10T08:33:22;5.72;;;1.00;;
36725;SDS011;44936;52.086;5.150;2023-01-10T08:35:54;7.90;;;1.98;;
36725;SDS011;44936;52.086;5.150;2023-01-10T08:38:20;9.90;;;1.40;;
36725;SDS011;44936;52.086;5.150;2023-01-10T08:40:49;12.40;;;1.40;;
36725;SDS011;44936;52.086;5.150;2023-01-10T08:43:15;8.38;;;1.92;;
36725;SDS011;44936;52.086;5.150;2023-01-10T08:45:41;9.75;;;1.45;;
36725;SDS011;44936;52.086;5.150;2023-01-10T08:48:06;10.57;;;1.60;;
36725;SDS011;44936;52.086;5.150;2023-01-10T08:50:34;10.38;;;1.25;;
36725;SDS011;44936;52.086;5.150;2023-01-10T08:53:03;6.95;;;1.60;;
36725;SDS011;44936;52.086;5.150;2023-01-10T08:55:28;4.60;;;1.13;;
36725;SDS011;44936;52.086;5.150;2023-01-10T08:57:57;8.55;;;1.40;;
36725;SDS011;44936;52.086;5.150;2023-01-10T09:00:24;8.75;;;2.45;;
36725;SDS011;44936;52.086;5.150;2023-01-10T09:02:51;7.20;;;1.40;;
36725;SDS011;44936;52.086;5.150;2023-01-10T09:05:17;10.30;;;1.30;;
36725;SDS011;44936;52.086;5.150;2023-01-10T09:07:42;11.13;;;1.80;;
36725;SDS011;44936;52.086;5.150;2023-01-10T09:16:39;8.50;;;1.48;;
36725;SDS011;44936;52.086;5.150;2023-01-10T09:19:05;12.93;;;1.40;;
36725;SDS011;44936;52.086;5.150;2023-01-10T09:21:32;4.90;;;1.00;;
36725;SDS011;44936;52.086;5.150;2023-01-10T09:23:57;15.68;;;1.67;;
36725;SDS011;44936;52.086;5.150;2023-01-10T09:26:25;9.95;;;1.30;;
36725;SDS011;44936;52.086;5.150;2023-01-10T09:28:52;10.82;;;1.58;;
36725;SDS011;44936;52.086;5.150;2023-01-10T09:31:17;5.75;;;1.17;;
36725;SDS011;44936;52.086;5.150;2023-01-10T09:33:46;8.23;;;0.98;;
36725;SDS011;44936;52.086;5.150;2023-01-10T09:36:18;5.82;;;1.50;;
36725;SDS011;44936;52.086;5.150;2023-01-10T09:38:43;10.70;;;1.77;;
36725;SDS011;44936;52.086;5.150;2023-01-10T09:41:32;5.53;;;1.30;;
36725;SDS011;44936;52.086;5.150;2023-01-10T09:53:04;6.10;;;1.70;;
36725;SDS011;44936;52.086;5.150;2023-01-10T09:59:14;9.40;;;1.40;;
36725;SDS011;44936;52.086;5.150;2023-01-10T10:01:43;7.18;;;1.40;;
36725;SDS011;44936;52.086;5.150;2023-01-10T10:04:26;8.00;;;1.10;;
36725;SDS011;44936;52.086;5.150;2023-01-10T10:07:04;5.72;;;1.05;;
36725;SDS011;44936;52.086;5.150;2023-01-10T10:09:37;6.30;;;0.85;;
36725;SDS011;44936;52.086;5.150;2023-01-10T10:17:50;5.18;;;0.93;;
36725;SDS011;44936;52.086;5.150;2023-01-10T10:23:34;9.70;;;1.42;;
36725;SDS011;44936;52.086;5.150;2023-01-10T10:29:35;6.30;;;1.33;;
36725;SDS011;44936;52.086;5.150;2023-01-10T10:38:57;9.30;;;1.27;;
36725;SDS011;44936;52.086;5.150;2023-01-10T14:12:20;4.72;;;0.80;;
36725;SDS011;44936;52.086;5.150;2023-01-10T14:15:01;4.75;;;0.80;;
36725;SDS011;44936;52.086;5.150;2023-01-10T18:33:37;2.85;;;1.67;;
36725;SDS011;44936;52.086;5.150;2023-01-10T18:36:10;3.17;;;1.58;;
36725;SDS011;44936;52.086;5.150;2023-01-10T18:38:47;2.28;;;1.45;;
36725;SDS011;44936;52.086;5.150;2023-01-10T20:20:30;4.10;;;2.20;;
36725;SDS011;44936;52.086;5.150;2023-01-10T20:22:56;5.28;;;2.22;;
36725;SDS011;44936;52.086;5.150;2023-01-10T20:25:21;2.15;;;1.75;;
36725;SDS011;44936;52.086;5.150;2023-01-10T20:27:52;2.50;;;1.73;;
36725;SDS011;44936;52.086;5.150;2023-01-10T20:30:18;2.95;;;1.83;;
36725;SDS011;44936;52.086;5.150;2023-01-10T20:32:43;3.55;;;1.73;;
36725;SDS011;44936;52.086;5.150;2023-01-10T20:38:12;5.43;;;1.90;;
36725;SDS011;44936;52.086;5.150;2023-01-10T20:41:01;4.28;;;2.40;;
36725;SDS011;44936;52.086;5.150;2023-01-10T20:43:32;2.90;;;1.77;;
36725;SDS011;44936;52.086;5.150;2023-01-10T20:46:14;4.43;;;1.73;;
36725;SDS011;44936;52.086;5.150;2023-01-10T20:48:51;6.57;;;1.95;;
36725;SDS011;44936;52.086;5.150;2023-01-10T20:51:22;3.30;;;2.10;;
36725;SDS011;44936;52.086;5.150;2023-01-10T20:54:02;4.47;;;1.77;;
36725;SDS011;44936;52.086;5.150;2023-01-10T20:56:33;4.50;;;1.98;;
36725;SDS011;44936;52.086;5.150;2023-01-10T20:59:03;3.87;;;2.03;;
36725;SDS011;44936;52.086;5.150;2023-01-10T21:18:07;5.53;;;2.30;;
36725;SDS011;44936;52.086;5.150;2023-01-10T21:28:50;2.25;;;1.58;;
36725;SDS011;44936;52.086;5.150;2023-01-10T21:31:21;3.60;;;2.08;;
36725;SDS011;44936;52.086;5.150;2023-01-10T21:33:52;4.13;;;2.10;;
36725;SDS011;44936;52.086;5.150;2023-01-10T21:36:21;4.55;;;2.45;;
36725;SDS011;44936;52.086;5.150;2023-01-10T21:38:49;2.97;;;1.95;;
36725;SDS011;44936;52.086;5.150;2023-01-10T21:41:43;2.30;;;1.90;;
36725;SDS011;44936;52.086;5.150;2023-01-10T22:20:43;3.70;;;1.80;;
36725;SDS011;44936;52.086;5.150;2023-01-10T22:23:22;2.50;;;1.60;;
36725;SDS011;44936;52.086;5.150;2023-01-10T22:26:03;3.00;;;1.80;;
36725;SDS011;44936;52.086;5.150;2023-01-10T22:33:59;3.60;;;2.00;;
36725;SDS011;44936;52.086;5.150;2023-01-10T22:39:47;3.03;;;1.80;;
36725;SDS011;44936;52.086;5.150;2023-01-10T22:42:22;3.05;;;1.70;;
36725;SDS011;44936;52.086;5.150;2023-01-10T22:44:50;2.53;;;1.88;;
36725;SDS011;44936;52.086;5.150;2023-01-10T22:47:47;4.82;;;1.83;;
36725;SDS011;44936;52.086;5.150;2023-01-10T22:50:21;4.47;;;1.65;;
